createdAt,value
2023-04-15T00:01:19.297Z,100329.28
2023-04-15T00:03:48.543Z,100334.22
2023-04-15T00:06:16.652Z,100331.63
2023-04-15T00:08:44.577Z,100329.75
2023-04-15T00:11:13.775Z,100332.34
2023-04-15T00:13:41.836Z,100325.56
2023-04-15T00:16:10.828Z,100334.38
2023-04-15T00:18:38.852Z,100336.59
2023-04-15T00:21:07.026Z,100331.19
2023-04-15T00:23:36.421Z,100328.19
2023-04-15T00:26:04.391Z,100328.78
2023-04-15T00:28:33.596Z,100318.03
2023-04-15T00:31:01.569Z,100327.81
2023-04-15T00:33:29.413Z,100322.38
2023-04-15T00:35:57.614Z,100321.84
2023-04-15T00:38:25.612Z,100322.78
2023-04-15T00:40:55.129Z,100319.09
2023-04-15T00:43:23.022Z,100325.91
2023-04-15T00:45:54.389Z,100319.38
2023-04-15T00:48:23.068Z,100310.81
2023-04-15T00:50:50.933Z,100319.16
2023-04-15T00:53:18.783Z,100314.59
2023-04-15T00:55:46.678Z,100317.44
2023-04-15T00:58:14.603Z,100319.19
2023-04-15T01:00:43.891Z,100309.25
2023-04-15T01:03:13.210Z,100309.78
2023-04-15T01:05:41.308Z,100311.53
2023-04-15T01:08:09.771Z,100311.88
2023-04-15T01:10:37.978Z,100309.47
2023-04-15T01:13:05.891Z,100300.28
2023-04-15T01:15:34.509Z,100296.94
2023-04-15T01:18:03.853Z,100308.63
2023-04-15T01:20:33.141Z,100296.25
2023-04-15T01:23:01.732Z,100294.97
2023-04-15T01:25:34.752Z,100303.13
2023-04-15T01:28:03.255Z,100299.59
2023-04-15T01:30:35.463Z,100298.50
2023-04-15T01:33:03.746Z,100295.25
2023-04-15T01:35:32.190Z,100295.25
2023-04-15T01:38:06.264Z,100292.34
2023-04-15T01:40:35.730Z,100296.88
2023-04-15T01:43:03.935Z,100295.97
2023-04-15T01:45:31.770Z,100300.53
2023-04-15T01:47:59.722Z,100295.25
2023-04-15T01:50:28.280Z,100295.53
2023-04-15T01:52:57.103Z,100292.22
2023-04-15T01:55:25.480Z,100299.09
2023-04-15T01:57:54.709Z,100294.22
2023-04-15T02:00:23.237Z,100297.56
2023-04-15T02:02:51.302Z,100288.34
2023-04-15T02:05:19.162Z,100285.94
2023-04-15T02:07:49.491Z,100296.41
2023-04-15T02:10:17.535Z,100293.13
2023-04-15T02:12:45.403Z,100277.81
2023-04-15T02:15:14.791Z,100283.31
2023-04-15T02:17:45.989Z,100283.56
2023-04-15T02:20:16.775Z,100289.34
2023-04-15T02:22:45.071Z,100288.41
2023-04-15T02:25:12.999Z,100289.38
2023-04-15T02:27:40.928Z,100293.19
2023-04-15T02:30:09.527Z,100286.06
2023-04-15T02:32:39.110Z,100274.69
2023-04-15T02:35:08.749Z,100278.47
2023-04-15T02:37:41.692Z,100281.28
2023-04-15T02:40:12.241Z,100280.38
2023-04-15T02:42:40.531Z,100279.03
2023-04-15T02:45:12.252Z,100284.38
2023-04-15T02:47:43.327Z,100288.88
2023-04-15T02:50:13.321Z,100294.41
2023-04-15T02:52:43.248Z,100287.84
2023-04-15T02:55:12.612Z,100292.69
2023-04-15T02:57:41.226Z,100290.50
2023-04-15T03:00:12.061Z,100292.16
2023-04-15T03:02:45.195Z,100290.06
2023-04-15T03:05:14.448Z,100302.41
2023-04-15T03:07:50.330Z,100287.47
2023-04-15T03:10:18.803Z,100297.03
2023-04-15T03:12:47.661Z,100297.78
2023-04-15T03:15:19.296Z,100297.78
2023-04-15T03:17:51.921Z,100291.91
2023-04-15T03:20:20.367Z,100288.91
2023-04-15T03:22:49.584Z,100286.09
2023-04-15T03:25:17.662Z,100296.41
2023-04-15T03:27:45.524Z,100293.78
2023-04-15T03:30:14.939Z,100298.47
2023-04-15T03:32:42.900Z,100295.13
2023-04-15T03:35:12.457Z,100295.97
2023-04-15T03:37:40.327Z,100296.28
2023-04-15T03:40:09.775Z,100294.97
2023-04-15T03:42:37.634Z,100297.00
2023-04-15T03:45:06.786Z,100297.56
2023-04-15T03:47:34.868Z,100296.53
2023-04-15T03:50:02.659Z,100287.91
2023-04-15T03:52:31.816Z,100289.88
2023-04-15T03:54:59.613Z,100295.00
2023-04-15T03:57:27.537Z,100294.16
2023-04-15T03:59:55.346Z,100299.19
2023-04-15T04:02:23.431Z,100293.34
2023-04-15T04:04:51.837Z,100291.53
2023-04-15T04:07:19.824Z,100299.47
2023-04-15T04:09:48.999Z,100297.94
2023-04-15T04:12:16.841Z,100303.91
2023-04-15T04:14:44.656Z,100298.31
2023-04-15T04:17:12.736Z,100293.81
2023-04-15T04:19:40.949Z,100301.13
2023-04-15T04:22:08.788Z,100301.53
2023-04-15T04:24:36.653Z,100302.44
2023-04-15T04:27:05.935Z,100308.47
2023-04-15T04:29:33.776Z,100306.47
2023-04-15T04:32:01.706Z,100310.50
2023-04-15T04:34:29.607Z,100307.91
2023-04-15T04:36:57.424Z,100306.47
2023-04-15T04:39:25.298Z,100310.66
2023-04-15T04:41:53.242Z,100313.31
2023-04-15T04:44:22.413Z,100312.13
2023-04-15T04:46:50.245Z,100306.47
2023-04-15T04:49:18.075Z,100313.28
2023-04-15T04:51:47.065Z,100314.75
2023-04-15T04:54:14.900Z,100316.47
2023-04-15T04:56:42.755Z,100319.53
2023-04-15T04:59:10.615Z,100321.25
2023-04-15T05:01:39.952Z,100320.16
2023-04-15T05:04:08.192Z,100324.09
2023-04-15T05:06:36.609Z,100327.47
2023-04-15T05:09:04.557Z,100334.28
2023-04-15T05:11:32.431Z,100334.28
2023-04-15T05:14:02.233Z,100335.38
2023-04-15T05:16:30.129Z,100336.97
2023-04-15T05:18:59.549Z,100333.41
2023-04-15T05:21:27.844Z,100338.31
2023-04-15T05:23:55.701Z,100336.19
2023-04-15T05:26:24.334Z,100333.44
2023-04-15T05:28:52.281Z,100344.84
2023-04-15T05:31:20.502Z,100337.91
2023-04-15T05:33:48.419Z,100348.28
2023-04-15T05:36:17.502Z,100344.66
2023-04-15T05:38:45.342Z,100352.75
2023-04-15T05:41:16.600Z,100346.50
2023-04-15T05:43:46.466Z,100350.22
2023-04-15T05:46:14.295Z,100349.50
2023-04-15T05:48:42.162Z,100350.09
2023-04-15T05:51:10.490Z,100344.28
2023-04-15T05:53:41.192Z,100347.69
2023-04-15T05:56:09.021Z,100339.28
2023-04-15T05:58:36.843Z,100346.72
2023-04-15T06:01:05.060Z,100340.56
2023-04-15T06:03:33.638Z,100342.09
2023-04-15T06:06:02.510Z,100343.66
2023-04-15T06:08:30.355Z,100340.72
2023-04-15T06:10:59.719Z,100333.50
2023-04-15T06:13:27.550Z,100339.47
2023-04-15T06:15:55.382Z,100345.69
2023-04-15T06:18:23.253Z,100342.03
2023-04-15T06:20:51.677Z,100341.72
2023-04-15T06:23:19.473Z,100336.34
2023-04-15T06:25:47.288Z,100347.94
2023-04-15T06:28:16.563Z,100340.88
2023-04-15T06:30:44.394Z,100344.25
2023-04-15T06:33:12.482Z,100349.66
2023-04-15T06:35:40.584Z,100350.50
2023-04-15T06:38:08.412Z,100350.06
2023-04-15T06:40:36.291Z,100343.84
2023-04-15T06:43:04.837Z,100353.56
2023-04-15T06:45:34.100Z,100357.09
2023-04-15T06:48:02.091Z,100356.41
2023-04-15T06:50:29.917Z,100351.53
2023-04-15T06:52:58.268Z,100368.41
2023-04-15T06:55:26.157Z,100369.94
2023-04-15T06:57:54.097Z,100369.34
2023-04-15T07:00:22.342Z,100357.28
2023-04-15T07:02:52.732Z,100373.00
2023-04-15T07:05:20.758Z,100363.13
2023-04-15T07:07:48.548Z,100361.78
2023-04-15T07:10:16.627Z,100372.53
2023-04-15T07:12:44.431Z,100384.81
2023-04-15T07:15:12.696Z,100385.13
2023-04-15T07:17:43.191Z,100385.28
2023-04-15T07:20:13.975Z,100378.31
2023-04-15T07:22:41.838Z,100393.06
2023-04-15T07:25:10.365Z,100388.81
2023-04-15T07:27:38.208Z,100388.16
2023-04-15T07:30:07.550Z,100402.91
2023-04-15T07:32:35.465Z,100404.31
2023-04-15T07:35:03.779Z,100400.88
2023-04-15T07:37:33.597Z,100408.28
2023-04-15T07:40:01.895Z,100408.91
2023-04-15T07:42:30.532Z,100410.34
2023-04-15T07:44:58.553Z,100408.09
2023-04-15T07:47:27.109Z,100419.66
2023-04-15T07:49:54.951Z,100418.00
2023-04-15T07:52:22.789Z,100416.00
2023-04-15T07:54:51.961Z,100417.81
2023-04-15T07:57:19.947Z,100420.78
2023-04-15T07:59:47.730Z,100409.47
2023-04-15T08:02:15.683Z,100421.63
2023-04-15T08:04:44.222Z,100412.47
2023-04-15T08:07:12.175Z,100416.56
2023-04-15T08:09:40.024Z,100416.81
2023-04-15T08:12:12.410Z,100422.19
2023-04-15T08:14:40.301Z,100423.03
2023-04-15T08:17:08.163Z,100426.31
2023-04-15T08:19:35.997Z,100423.34
2023-04-15T08:22:03.877Z,100435.66
2023-04-15T08:24:32.390Z,100429.66
2023-04-15T08:27:00.233Z,100431.38
2023-04-15T08:29:29.428Z,100431.78
2023-04-15T08:31:57.375Z,100436.03
2023-04-15T08:34:25.539Z,100436.88
2023-04-15T08:36:53.892Z,100441.56
2023-04-15T08:39:21.704Z,100447.31
2023-04-15T08:41:56.109Z,100437.16
2023-04-15T08:44:25.496Z,100432.94
2023-04-15T08:46:57.758Z,100444.78
2023-04-15T08:49:29.059Z,100437.72
2023-04-15T08:51:59.437Z,100449.88
2023-04-15T08:54:28.116Z,100458.47
2023-04-15T08:56:56.145Z,100451.28
2023-04-15T08:59:24.938Z,100454.38
2023-04-15T09:01:55.373Z,100452.25
2023-04-15T09:04:23.279Z,100458.47
2023-04-15T09:06:52.207Z,100460.28
2023-04-15T09:09:20.242Z,100464.53
2023-04-15T09:11:49.940Z,100459.91
2023-04-15T09:14:18.319Z,100460.63
2023-04-15T09:17:01.321Z,100460.31
2023-04-15T09:19:30.246Z,100464.69
2023-04-15T09:21:59.676Z,100471.38
2023-04-15T09:24:37.396Z,100466.34
2023-04-15T09:27:05.481Z,100465.66
2023-04-15T09:29:33.363Z,100471.06
2023-04-15T09:32:13.325Z,100469.66
2023-04-15T09:34:41.154Z,100471.19
2023-04-15T09:37:10.879Z,100478.13
2023-04-15T09:39:50.052Z,100482.63
2023-04-15T09:42:24.150Z,100487.16
2023-04-15T09:44:52.508Z,100486.00
2023-04-15T09:47:32.329Z,100484.63
2023-04-15T09:50:01.888Z,100486.59
2023-04-15T09:52:30.528Z,100493.13
2023-04-15T09:54:59.653Z,100489.31
2023-04-15T09:57:35.579Z,100495.66
2023-04-15T10:00:04.011Z,100499.56
2023-04-15T10:02:36.682Z,100505.38
2023-04-15T10:05:06.096Z,100502.44
2023-04-15T10:07:35.160Z,100499.88
2023-04-15T10:10:05.387Z,100506.81
2023-04-15T10:12:33.619Z,100505.81
2023-04-15T10:15:05.931Z,100511.19
2023-04-15T10:17:37.257Z,100517.13
2023-04-15T10:20:07.098Z,100520.22
2023-04-15T10:22:36.444Z,100515.84
2023-04-15T10:25:04.456Z,100518.69
2023-04-15T10:27:32.469Z,100516.25
2023-04-15T10:30:03.020Z,100517.94
2023-04-15T10:32:31.475Z,100516.56
2023-04-15T10:35:01.318Z,100516.69
2023-04-15T10:37:35.973Z,100519.69
2023-04-15T10:40:26.082Z,100521.91
2023-04-15T10:42:55.092Z,100524.91
2023-04-15T10:45:23.335Z,100528.00
2023-04-15T10:47:57.154Z,100531.09
2023-04-15T10:50:29.822Z,100531.94
2023-04-15T10:52:58.497Z,100529.97
2023-04-15T10:55:28.034Z,100526.00
2023-04-15T10:58:00.908Z,100528.41
2023-04-15T11:00:31.084Z,100530.94
2023-04-15T11:03:00.710Z,100533.66
2023-04-15T11:05:53.921Z,100535.22
2023-04-15T11:08:42.400Z,100538.72
2023-04-15T11:11:10.263Z,100542.97
2023-04-15T11:13:49.394Z,100547.66
2023-04-15T11:16:17.526Z,100552.19
2023-04-15T11:18:55.110Z,100543.97
2023-04-15T11:21:27.057Z,100551.03
2023-04-15T11:23:54.903Z,100558.38
2023-04-15T11:26:28.118Z,100559.81
2023-04-15T11:28:56.048Z,100563.22
2023-04-15T11:31:24.467Z,100560.06
2023-04-15T11:33:56.940Z,100568.41
2023-04-15T11:36:28.335Z,100566.44
2023-04-15T11:38:56.954Z,100571.25
2023-04-15T11:41:25.162Z,100569.00
2023-04-15T11:43:53.461Z,100576.63
2023-04-15T11:46:22.697Z,100583.81
2023-04-15T11:48:50.889Z,100577.63
2023-04-15T11:51:20.857Z,100582.28
2023-04-15T11:53:51.999Z,100588.78
2023-04-15T11:56:21.075Z,100580.72
2023-04-15T11:58:50.903Z,100587.53
2023-04-15T12:01:19.137Z,100593.31
2023-04-15T12:03:48.429Z,100595.16
2023-04-15T12:06:19.331Z,100593.72
2023-04-15T12:09:04.734Z,100597.69
2023-04-15T12:11:37.717Z,100598.81
2023-04-15T12:14:08.797Z,100602.97
2023-04-15T12:16:49.022Z,100598.44
2023-04-15T12:19:20.262Z,100603.22
2023-04-15T12:21:49.454Z,100595.16
2023-04-15T12:24:22.948Z,100605.78
2023-04-15T12:26:52.800Z,100612.88
2023-04-15T12:29:21.336Z,100607.75
2023-04-15T12:31:51.713Z,100612.28
2023-04-15T12:34:21.049Z,100611.81
2023-04-15T12:36:48.970Z,100617.34
2023-04-15T12:39:18.173Z,100622.63
2023-04-15T12:41:46.162Z,100615.25
2023-04-15T12:44:14.026Z,100627.38
2023-04-15T12:46:41.984Z,100622.16
2023-04-15T12:49:10.433Z,100624.88
2023-04-15T12:51:38.402Z,100633.31
2023-04-15T12:54:06.392Z,100630.78
2023-04-15T12:56:35.850Z,100633.47
2023-04-15T12:59:03.729Z,100637.75
2023-04-15T13:01:31.640Z,100636.91
2023-04-15T13:03:59.540Z,100637.44
2023-04-15T13:06:29.171Z,100640.72
2023-04-15T13:08:58.760Z,100647.22
2023-04-15T13:11:27.254Z,100644.66
2023-04-15T13:13:56.933Z,100647.50
2023-04-15T13:16:25.104Z,100650.19
2023-04-15T13:18:53.095Z,100647.66
2023-04-15T13:21:21.271Z,100647.75
2023-04-15T13:23:49.958Z,100649.31
2023-04-15T13:26:18.321Z,100655.78
2023-04-15T13:28:46.878Z,100659.66
2023-04-15T13:31:16.267Z,100661.09
2023-04-15T13:33:44.155Z,100661.09
2023-04-15T13:36:12.016Z,100663.91
2023-04-15T13:38:39.968Z,100661.94
2023-04-15T13:41:07.834Z,100661.94
2023-04-15T13:43:35.691Z,100661.09
2023-04-15T13:46:03.898Z,100668.44
2023-04-15T13:48:33.156Z,100670.81
2023-04-15T13:51:01.108Z,100676.22
2023-04-15T13:53:38.374Z,100672.69
2023-04-15T13:56:07.628Z,100670.81
2023-04-15T13:58:35.487Z,100679.72
2023-04-15T14:01:05.465Z,100682.72
2023-04-15T14:03:36.560Z,100684.84
2023-04-15T14:06:05.747Z,100685.41
2023-04-15T14:08:34.135Z,100691.63
2023-04-15T14:11:02.243Z,100696.44
2023-04-15T14:13:30.088Z,100690.63
2023-04-15T14:15:58.259Z,100691.06
2023-04-15T14:18:26.299Z,100696.28
2023-04-15T14:20:55.581Z,100706.47
2023-04-15T14:23:23.463Z,100702.31
2023-04-15T14:25:51.740Z,100712.44
2023-04-15T14:28:19.633Z,100713.91
2023-04-15T14:30:47.661Z,100722.66
2023-04-15T14:33:15.732Z,100720.97
2023-04-15T14:35:43.751Z,100723.56
2023-04-15T14:38:13.296Z,100725.78
2023-04-15T14:40:42.845Z,100731.13
2023-04-15T14:43:10.898Z,100740.09
2023-04-15T14:45:40.679Z,100741.59
2023-04-15T14:48:12.725Z,100739.69
2023-04-15T14:50:41.266Z,100741.63
2023-04-15T14:53:09.356Z,100740.06
2023-04-15T14:55:38.773Z,100741.88
2023-04-15T14:58:08.274Z,100745.16
2023-04-15T15:00:39.314Z,100757.72
2023-04-15T15:03:12.828Z,100755.19
2023-04-15T15:05:41.246Z,100758.31
2023-04-15T15:08:09.828Z,100756.84
2023-04-15T15:10:49.518Z,100763.03
2023-04-15T15:13:18.906Z,100762.47
2023-04-15T15:15:49.247Z,100759.94
2023-04-15T15:18:19.096Z,100768.72
2023-04-15T15:20:47.509Z,100769.72
2023-04-15T15:23:15.933Z,100778.91
2023-04-15T15:25:45.505Z,100770.78
2023-04-15T15:28:13.466Z,100772.16
2023-04-15T15:30:41.319Z,100776.41
2023-04-15T15:33:09.233Z,100780.06
2023-04-15T15:35:37.328Z,100777.91
2023-04-15T15:38:05.375Z,100787.16
2023-04-15T15:40:33.180Z,100794.59
2023-04-15T15:43:02.353Z,100784.31
2023-04-15T15:45:30.310Z,100793.59
2023-04-15T15:47:59.199Z,100790.56
2023-04-15T15:50:27.353Z,100793.63
2023-04-15T15:52:55.776Z,100793.50
2023-04-15T15:55:25.244Z,100799.09
2023-04-15T15:57:53.066Z,100800.66
2023-04-15T16:00:23.160Z,100798.94
2023-04-15T16:03:06.142Z,100801.88
2023-04-15T16:05:34.952Z,100803.34
2023-04-15T16:08:02.892Z,100808.28
2023-04-15T16:10:30.730Z,100808.34
2023-04-15T16:12:58.577Z,100810.56
2023-04-15T16:15:27.786Z,100820.72
2023-04-15T16:17:55.790Z,100819.84
2023-04-15T16:20:23.719Z,100818.16
2023-04-15T16:22:51.939Z,100816.28
2023-04-15T16:25:19.877Z,100822.28
2023-04-15T16:27:59.291Z,100825.06
2023-04-15T16:30:32.642Z,100823.66
2023-04-15T16:33:00.784Z,100827.56
2023-04-15T16:35:28.639Z,100829.97
2023-04-15T16:37:56.492Z,100828.63
2023-04-15T16:40:24.916Z,100835.00
2023-04-15T16:42:53.146Z,100835.75
2023-04-15T16:45:20.991Z,100834.63
2023-04-15T16:47:50.216Z,100845.63
2023-04-15T16:50:18.434Z,100837.78
2023-04-15T16:52:46.281Z,100844.16
2023-04-15T16:55:14.124Z,100843.28
2023-04-15T16:58:01.427Z,100852.59
2023-04-15T17:00:29.803Z,100859.16
2023-04-15T17:02:59.360Z,100856.03
2023-04-15T17:05:27.952Z,100857.31
2023-04-15T17:07:56.168Z,100863.19
2023-04-15T17:10:24.412Z,100867.22
2023-04-15T17:12:52.575Z,100866.22
2023-04-15T17:15:20.938Z,100865.16
2023-04-15T17:17:48.875Z,100874.56
2023-04-15T17:20:18.390Z,100873.34
2023-04-15T17:22:46.825Z,100872.38
2023-04-15T17:25:15.160Z,100885.66
2023-04-15T17:27:43.045Z,100891.28
2023-04-15T17:30:11.679Z,100885.91
2023-04-15T17:32:40.118Z,100893.16
2023-04-15T17:35:09.128Z,100899.22
2023-04-15T17:37:38.309Z,100904.72
2023-04-15T17:40:08.801Z,100907.19
2023-04-15T17:42:36.892Z,100907.88
2023-04-15T17:45:05.077Z,100911.41
2023-04-15T17:47:33.230Z,100906.72
2023-04-15T17:50:01.135Z,100914.69
2023-04-15T17:52:28.978Z,100915.25
2023-04-15T17:54:58.272Z,100920.19
2023-04-15T17:57:26.244Z,100915.13
2023-04-15T17:59:54.137Z,100921.78
2023-04-15T18:02:22.096Z,100922.78
2023-04-15T18:04:50.407Z,100929.25
2023-04-15T18:07:18.435Z,100937.16
2023-04-15T18:09:46.420Z,100938.81
2023-04-15T18:12:15.593Z,100943.22
2023-04-15T18:14:43.674Z,100943.66
2023-04-15T18:17:11.868Z,100954.53
2023-04-15T18:19:39.715Z,100950.72
2023-04-15T18:22:07.630Z,100962.13
2023-04-15T18:24:35.681Z,100969.59
2023-04-15T18:27:03.767Z,100963.53
2023-04-15T18:29:33.017Z,100968.03
2023-04-15T18:32:02.916Z,100963.66
2023-04-15T18:34:31.013Z,100968.47
2023-04-15T18:36:59.922Z,100979.22
2023-04-15T18:39:28.045Z,100979.16
2023-04-15T18:41:57.205Z,100987.69
2023-04-15T18:44:25.134Z,100986.22
2023-04-15T18:46:54.354Z,100990.13
2023-04-15T18:49:22.157Z,100988.47
2023-04-15T18:51:50.008Z,100988.97
2023-04-15T18:54:17.853Z,100997.69
2023-04-15T18:56:45.767Z,100998.91
2023-04-15T18:59:29.802Z,100998.25
2023-04-15T19:02:00.315Z,101002.72
2023-04-15T19:04:29.557Z,101008.09
2023-04-15T19:06:58.816Z,101011.75
2023-04-15T19:09:26.816Z,101015.63
2023-04-15T19:11:54.682Z,101018.72
2023-04-15T19:14:22.780Z,101024.09
2023-04-15T19:16:50.870Z,101032.72
2023-04-15T19:19:20.272Z,101026.63
2023-04-15T19:21:49.972Z,101021.97
2023-04-15T19:24:18.700Z,101036.03
2023-04-15T19:26:49.450Z,101031.13
2023-04-15T19:29:17.599Z,101035.78
2023-04-15T19:31:45.471Z,101032.75
2023-04-15T19:34:13.300Z,101030.44
2023-04-15T19:36:42.723Z,101032.00
2023-04-15T19:39:10.861Z,101042.66
2023-04-15T19:41:39.332Z,101044.47
2023-04-15T19:44:07.458Z,101038.91
2023-04-15T19:46:35.514Z,101041.88
2023-04-15T19:49:03.689Z,101048.25
2023-04-15T19:51:31.871Z,101046.75
2023-04-15T19:54:01.219Z,101047.44
2023-04-15T19:56:29.951Z,101050.53
2023-04-15T19:58:59.705Z,101054.44
2023-04-15T20:01:28.649Z,101060.00
2023-04-15T20:03:56.879Z,101059.31
2023-04-15T20:06:24.943Z,101052.44
2023-04-15T20:08:52.841Z,101055.91
2023-04-15T20:12:05.196Z,101058.03
2023-04-15T20:14:17.470Z,101061.00
2023-04-15T20:16:45.310Z,101054.31
2023-04-15T20:19:13.854Z,101058.22
2023-04-15T20:21:41.679Z,101062.72
2023-04-15T20:24:09.625Z,101066.84
2023-04-15T20:26:38.805Z,101066.84
2023-04-15T20:29:06.768Z,101074.00
2023-04-15T20:31:35.001Z,101064.19
2023-04-15T20:34:02.879Z,101072.44
2023-04-15T20:36:31.671Z,101069.56
2023-04-15T20:38:59.576Z,101074.19
2023-04-15T20:41:27.397Z,101067.75
2023-04-15T20:43:56.576Z,101073.91
2023-04-15T20:46:26.596Z,101071.78
2023-04-15T20:48:55.662Z,101072.59
2023-04-15T20:51:23.643Z,101077.69
2023-04-15T20:53:51.486Z,101075.91
2023-04-15T20:56:19.454Z,101076.25
2023-04-15T20:58:47.264Z,101083.22
2023-04-15T21:01:16.507Z,101088.72
2023-04-15T21:03:44.409Z,101087.47
2023-04-15T21:06:12.373Z,101083.31
2023-04-15T21:08:40.153Z,101086.38
2023-04-15T21:11:08.094Z,101087.84
2023-04-15T21:13:35.934Z,101090.50
2023-04-15T21:16:03.792Z,101092.81
2023-04-15T21:18:33.013Z,101099.78
2023-04-15T21:21:02.314Z,101097.28
2023-04-15T21:23:30.736Z,101095.44
2023-04-15T21:25:59.775Z,101102.81
2023-04-15T21:28:28.324Z,101103.94
2023-04-15T21:30:56.636Z,101109.28
2023-04-15T21:33:25.572Z,101112.84
2023-04-15T21:35:55.406Z,101122.47
2023-04-15T21:38:23.596Z,101118.28
2023-04-15T21:40:51.763Z,101122.84
2023-04-15T21:43:21.496Z,101120.56
2023-04-15T21:46:21.050Z,101125.66
2023-04-15T21:48:37.392Z,101124.44
2023-04-15T21:51:06.871Z,101128.81
2023-04-15T21:53:34.899Z,101132.25
2023-04-15T21:56:02.872Z,101132.72
2023-04-15T21:58:30.743Z,101130.16
2023-04-15T22:01:00.337Z,101144.19
2023-04-15T22:03:30.557Z,101137.94
2023-04-15T22:05:58.728Z,101141.16
2023-04-15T22:08:27.924Z,101138.72
2023-04-15T22:10:56.165Z,101146.13
2023-04-15T22:13:23.963Z,101140.03
2023-04-15T22:15:51.775Z,101148.59
2023-04-15T22:18:19.585Z,101149.09
2023-04-15T22:20:47.433Z,101157.81
2023-04-15T22:23:17.522Z,101160.53
2023-04-15T22:25:47.309Z,101158.97
2023-04-15T22:28:15.153Z,101172.22
2023-04-15T22:30:43.515Z,101166.63
2023-04-15T22:33:11.551Z,101168.09
2023-04-15T22:35:39.614Z,101172.13
2023-04-15T22:38:07.433Z,101174.66
2023-04-15T22:40:35.381Z,101173.06
2023-04-15T22:43:04.584Z,101174.91
2023-04-15T22:45:32.397Z,101180.78
2023-04-15T22:48:00.544Z,101180.16
2023-04-15T22:50:28.432Z,101183.47
2023-04-15T22:52:56.252Z,101182.50
2023-04-15T22:55:24.367Z,101186.66
2023-04-15T22:57:52.762Z,101190.03
2023-04-15T23:00:22.225Z,101194.94
2023-04-15T23:02:50.695Z,101194.19
2023-04-15T23:05:18.698Z,101199.44
2023-04-15T23:07:46.569Z,101201.03
2023-04-15T23:10:14.418Z,101197.00
2023-04-15T23:12:42.486Z,101203.44
2023-04-15T23:15:11.010Z,101203.72
2023-04-15T23:17:40.271Z,101197.97
2023-04-15T23:20:08.693Z,101203.94
2023-04-15T23:22:37.643Z,101206.13
2023-04-15T23:25:06.602Z,101211.75
2023-04-15T23:27:34.559Z,101214.44
2023-04-15T23:30:02.583Z,101208.44
2023-04-15T23:32:30.616Z,101212.44
2023-04-15T23:34:59.945Z,101209.78
2023-04-15T23:37:27.744Z,101215.41
2023-04-15T23:39:56.374Z,101214.69
2023-04-15T23:42:24.233Z,101214.06
2023-04-15T23:44:52.267Z,101215.53
2023-04-15T23:47:20.168Z,101210.91
2023-04-15T23:49:48.063Z,101208.34
2023-04-15T23:52:17.329Z,101225.06
2023-04-15T23:54:45.182Z,101217.34
2023-04-15T23:57:13.060Z,101219.78
2023-04-15T23:59:40.898Z,101220.53
